Time;durP1;ratioP1;P1;durP2;ratioP2;P2;SDS_P1;SDS_P2;PMS_P1;PMS_P2;Temp;Humidity;BMP_temperature;BMP_pressure;BME280_temperature;BME280_humidity;BME280_pressure;Samples;Min_cycle;Max_cycle;Signal;HPM_P1;HPM_P2
2021/04/18 00:01:29;;;;;;;16.20;5.82;;;6.20;99.90;;;;;;4974268;28;20093;-86
2021/04/18 00:03:55;;;;;;;15.38;4.97;;;6.10;99.90;;;;;;4981122;28;20429;-86
2021/04/18 00:06:21;;;;;;;11.35;5.00;;;6.00;99.90;;;;;;4993531;28;20093;-86
2021/04/18 00:08:47;;;;;;;18.75;5.20;;;5.90;99.90;;;;;;4992700;28;20459;-86
2021/04/18 00:11:14;;;;;;;15.32;5.80;;;5.70;99.90;;;;;;4992336;28;20022;-86
2021/04/18 00:13:39;;;;;;;16.42;6.20;;;5.70;99.90;;;;;;4991401;28;20061;-86
2021/04/18 00:16:05;;;;;;;13.27;6.20;;;5.60;99.90;;;;;;4993398;28;20072;-87
2021/04/18 00:18:31;;;;;;;11.70;5.65;;;5.50;99.90;;;;;;4992183;28;20030;-86
2021/04/18 00:20:56;;;;;;;12.27;6.32;;;5.40;99.90;;;;;;4993243;28;20035;-86
2021/04/18 00:23:22;;;;;;;13.77;5.60;;;5.30;99.90;;;;;;4988877;28;20019;-86
2021/04/18 00:25:48;;;;;;;17.33;5.97;;;5.30;99.90;;;;;;4973459;28;20110;-86
2021/04/18 00:28:14;;;;;;;18.50;6.15;;;5.20;99.90;;;;;;4982093;28;20041;-87
2021/04/18 00:30:39;;;;;;;18.67;5.82;;;5.20;99.90;;;;;;4992168;28;20509;-86
2021/04/18 00:33:05;;;;;;;15.02;5.03;;;5.10;99.90;;;;;;4992395;28;20096;-86
2021/04/18 00:35:30;;;;;;;11.40;5.57;;;5.00;99.90;;;;;;4992411;28;20396;-87
2021/04/18 00:37:56;;;;;;;12.55;5.95;;;4.90;99.90;;;;;;4993122;28;20057;-87
2021/04/18 00:40:23;;;;;;;12.73;5.82;;;4.90;99.90;;;;;;4991794;28;20073;-86
2021/04/18 00:42:49;;;;;;;9.35;5.60;;;4.80;99.90;;;;;;4992598;28;20026;-86
2021/04/18 00:45:16;;;;;;;11.38;5.88;;;4.80;99.90;;;;;;4992303;28;20018;-86
2021/04/18 00:47:45;;;;;;;16.52;6.13;;;4.70;99.90;;;;;;4992779;28;20058;-86
2021/04/18 00:50:13;;;;;;;10.60;4.72;;;4.70;99.90;;;;;;4992819;28;20026;-86
2021/04/18 00:52:39;;;;;;;15.75;5.22;;;4.60;99.90;;;;;;4991422;28;20054;-85
2021/04/18 00:55:07;;;;;;;9.82;5.10;;;4.60;99.90;;;;;;4972909;28;20538;-86
2021/04/18 00:57:33;;;;;;;12.45;4.88;;;4.50;99.90;;;;;;4975241;28;20030;-86
2021/04/18 01:00:00;;;;;;;12.02;6.22;;;4.60;99.90;;;;;;4991327;28;20566;-86
2021/04/18 01:02:26;;;;;;;13.30;5.97;;;4.50;99.90;;;;;;4991179;28;20034;-86
2021/04/18 01:04:52;;;;;;;11.25;5.78;;;4.50;99.90;;;;;;4987338;28;20030;-86
2021/04/18 01:07:17;;;;;;;21.02;6.22;;;4.50;99.90;;;;;;4973030;28;20089;-86
2021/04/18 01:09:43;;;;;;;15.85;5.30;;;4.50;99.90;;;;;;4973510;28;20076;-87
2021/04/18 01:12:09;;;;;;;14.30;5.95;;;4.50;99.90;;;;;;4973050;28;20100;-86
2021/04/18 01:14:34;;;;;;;18.60;6.55;;;4.50;99.90;;;;;;4991582;28;20038;-87
2021/04/18 01:17:00;;;;;;;14.30;5.90;;;4.50;99.90;;;;;;4992489;28;20074;-86
2021/04/18 01:19:26;;;;;;;12.90;5.60;;;4.50;99.90;;;;;;4992190;28;20034;-86
2021/04/18 01:21:51;;;;;;;15.20;6.22;;;4.50;99.90;;;;;;4990944;28;20400;-87
2021/04/18 01:24:17;;;;;;;12.45;6.03;;;4.50;99.90;;;;;;4989985;28;20015;-86
2021/04/18 01:26:44;;;;;;;11.45;6.03;;;4.60;99.90;;;;;;4992432;28;20443;-86
2021/04/18 01:29:10;;;;;;;13.80;5.60;;;4.60;99.90;;;;;;4991583;28;20092;-87
2021/04/18 01:31:35;;;;;;;13.70;5.80;;;4.70;99.90;;;;;;5007233;28;20042;-87
2021/04/18 01:34:02;;;;;;;11.88;6.15;;;4.70;99.90;;;;;;4986891;28;20031;-87
2021/04/18 01:36:28;;;;;;;11.23;5.32;;;4.80;99.90;;;;;;4971577;28;20073;-87
2021/04/18 01:38:54;;;;;;;11.30;5.47;;;4.90;99.90;;;;;;4972886;28;20058;-87
2021/04/18 01:41:20;;;;;;;11.98;5.55;;;4.90;99.90;;;;;;4971616;28;20188;-86
2021/04/18 01:43:46;;;;;;;6.63;4.03;;;5.00;99.90;;;;;;4984749;28;20068;-86
2021/04/18 01:46:11;;;;;;;18.48;6.03;;;5.00;99.90;;;;;;4990931;28;20479;-86
2021/04/18 01:48:37;;;;;;;10.25;5.13;;;5.10;99.90;;;;;;4992278;28;20104;-86
2021/04/18 01:51:08;;;;;;;11.70;5.55;;;5.20;99.90;;;;;;4990790;28;20030;-87
2021/04/18 01:53:34;;;;;;;18.10;5.60;;;5.30;99.90;;;;;;4983691;28;20117;-86
2021/04/18 01:56:00;;;;;;;18.80;5.72;;;5.40;99.90;;;;;;4971046;28;20057;-87
2021/04/18 01:58:26;;;;;;;13.07;6.05;;;5.40;99.90;;;;;;4980987;28;20031;-86
2021/04/18 02:00:52;;;;;;;22.92;6.57;;;5.50;99.90;;;;;;5007186;28;20034;-86
2021/04/18 02:03:17;;;;;;;18.10;6.25;;;5.50;99.90;;;;;;4991751;28;20019;-87
2021/04/18 02:05:43;;;;;;;22.60;6.75;;;5.40;99.90;;;;;;4991115;28;20049;-87
2021/04/18 02:08:08;;;;;;;11.82;6.45;;;5.50;99.90;;;;;;4992059;28;20134;-87
2021/04/18 02:10:34;;;;;;;20.25;7.22;;;5.50;99.90;;;;;;4992071;28;20445;-86
2021/04/18 02:12:59;;;;;;;18.10;6.50;;;5.50;99.90;;;;;;4985304;28;20045;-86
2021/04/18 02:15:25;;;;;;;17.65;7.05;;;5.50;99.90;;;;;;4970788;28;20551;-87
2021/04/18 02:17:51;;;;;;;19.60;7.88;;;5.40;99.90;;;;;;4971329;28;20049;-87
2021/04/18 02:20:17;;;;;;;12.30;5.97;;;5.40;99.90;;;;;;4972322;28;20035;-87
2021/04/18 02:22:44;;;;;;;17.33;6.38;;;5.50;99.90;;;;;;4973771;28;20372;-87
2021/04/18 02:25:11;;;;;;;16.50;7.88;;;5.50;99.90;;;;;;5006276;28;20458;-86
2021/04/18 02:27:36;;;;;;;10.25;6.63;;;5.50;99.90;;;;;;4988253;28;20495;-86
2021/04/18 02:30:03;;;;;;;17.85;6.93;;;5.60;99.90;;;;;;4972370;28;20037;-86
2021/04/18 02:32:29;;;;;;;22.23;8.00;;;5.60;99.90;;;;;;4974377;28;20059;-86
2021/04/18 02:34:55;;;;;;;16.85;7.38;;;5.60;99.90;;;;;;4991365;28;20073;-86
2021/04/18 02:37:31;;;;;;;20.50;6.93;;;5.60;99.90;;;;;;4995170;28;20092;-87
2021/04/18 02:39:56;;;;;;;10.43;6.90;;;5.60;99.90;;;;;;4995040;28;20479;-86
2021/04/18 02:42:22;;;;;;;20.73;7.07;;;5.60;99.90;;;;;;4994138;28;20093;-86
2021/04/18 02:44:47;;;;;;;13.80;7.28;;;5.60;99.90;;;;;;4993236;28;20030;-86
2021/04/18 02:47:13;;;;;;;21.80;7.63;;;5.60;99.90;;;;;;4994951;28;20030;-86
2021/04/18 02:49:38;;;;;;;23.80;7.28;;;5.60;99.90;;;;;;4982650;28;20030;-86
2021/04/18 02:52:04;;;;;;;22.10;8.00;;;5.40;99.90;;;;;;4975464;28;20035;-87
2021/04/18 02:54:30;;;;;;;16.55;8.70;;;5.20;99.90;;;;;;4990320;28;20061;-87
2021/04/18 02:56:55;;;;;;;20.25;7.95;;;5.10;99.90;;;;;;4993720;28;20037;-86
2021/04/18 02:59:21;;;;;;;19.13;7.97;;;5.00;99.90;;;;;;4993640;28;20080;-87
2021/04/18 03:01:47;;;;;;;21.38;8.57;;;4.90;99.90;;;;;;4993634;28;20034;-86
2021/04/18 03:04:12;;;;;;;18.73;8.10;;;4.90;99.90;;;;;;4994054;28;20023;-87
2021/04/18 03:06:38;;;;;;;15.80;8.40;;;4.90;99.90;;;;;;4994945;28;20101;-86
2021/04/18 03:09:04;;;;;;;16.77;8.45;;;4.90;99.90;;;;;;4993625;28;20506;-86
2021/04/18 03:11:30;;;;;;;24.58;9.20;;;4.90;99.90;;;;;;4994571;28;20032;-87
2021/04/18 03:13:55;;;;;;;17.05;8.00;;;4.90;99.90;;;;;;4989211;28;20039;-87
2021/04/18 03:16:21;;;;;;;23.40;8.55;;;4.90;99.90;;;;;;4975277;28;20035;-87
2021/04/18 03:18:47;;;;;;;17.00;7.88;;;4.90;99.90;;;;;;4975302;28;20051;-87
2021/04/18 03:21:12;;;;;;;14.75;7.72;;;4.90;99.90;;;;;;4974897;28;20101;-87
2021/04/18 03:23:38;;;;;;;17.73;7.70;;;4.70;99.90;;;;;;4983604;28;20057;-86
2021/04/18 03:26:04;;;;;;;17.77;8.02;;;4.70;99.90;;;;;;4994126;28;20037;-87
2021/04/18 03:28:30;;;;;;;30.73;8.20;;;4.60;99.90;;;;;;4983982;28;20383;-87
2021/04/18 03:30:55;;;;;;;16.30;7.50;;;4.50;99.90;;;;;;4974934;28;20041;-87
2021/04/18 03:33:22;;;;;;;16.52;8.07;;;4.40;99.90;;;;;;4975071;28;20019;-86
2021/04/18 03:35:47;;;;;;;15.15;7.88;;;4.40;99.90;;;;;;4974355;28;20023;-86
2021/04/18 03:38:13;;;;;;;12.68;7.05;;;4.30;99.90;;;;;;4974825;28;20449;-86
2021/04/18 03:40:39;;;;;;;15.13;7.63;;;4.20;99.90;;;;;;4974830;28;20460;-87
2021/04/18 03:43:05;;;;;;;17.48;7.32;;;4.10;99.90;;;;;;4981216;28;20451;-87
2021/04/18 03:45:30;;;;;;;17.85;7.55;;;3.90;99.90;;;;;;4993526;28;20034;-86
2021/04/18 03:47:56;;;;;;;13.32;7.25;;;3.80;99.90;;;;;;4992803;28;20026;-86
2021/04/18 03:50:22;;;;;;;14.40;7.13;;;3.70;99.90;;;;;;4993951;28;20030;-87
2021/04/18 03:52:48;;;;;;;12.45;6.85;;;3.70;99.90;;;;;;4991804;28;20547;-86
2021/04/18 03:55:15;;;;;;;12.93;7.95;;;3.60;99.90;;;;;;4978221;28;20395;-86
2021/04/18 03:57:40;;;;;;;13.55;7.82;;;3.70;99.90;;;;;;5008603;28;20406;-87
2021/04/18 04:00:07;;;;;;;9.93;7.10;;;3.70;99.90;;;;;;4992502;28;20121;-87
2021/04/18 04:02:33;;;;;;;11.23;7.22;;;3.70;99.90;;;;;;4992495;28;20051;-86
2021/04/18 04:04:58;;;;;;;16.20;7.70;;;3.70;99.90;;;;;;4992928;28;20106;-87
2021/04/18 04:07:24;;;;;;;13.75;7.68;;;3.80;99.90;;;;;;5008842;28;20429;-87
2021/04/18 04:09:49;;;;;;;16.63;7.38;;;3.80;99.90;;;;;;4992528;28;20494;-86
2021/04/18 04:12:15;;;;;;;12.38;7.32;;;3.90;99.90;;;;;;4993219;28;20038;-86
2021/04/18 04:14:40;;;;;;;15.57;8.25;;;4.00;99.90;;;;;;4972367;28;20034;-87
2021/04/18 04:17:06;;;;;;;15.57;8.50;;;4.00;99.90;;;;;;4973044;28;20058;-87
2021/04/18 04:19:32;;;;;;;15.75;7.55;;;4.10;99.90;;;;;;4974083;28;20031;-86
2021/04/18 04:21:57;;;;;;;16.70;8.15;;;4.20;99.90;;;;;;4973968;28;20027;-86
2021/04/18 04:24:23;;;;;;;15.57;8.05;;;4.30;99.90;;;;;;4987872;28;20471;-86
2021/04/18 04:26:48;;;;;;;23.73;8.77;;;4.40;99.90;;;;;;4993307;28;20030;-87
2021/04/18 04:29:14;;;;;;;17.63;8.77;;;4.40;99.90;;;;;;4992688;28;20022;-87
2021/04/18 04:31:40;;;;;;;16.77;8.55;;;4.50;99.90;;;;;;4993196;28;20436;-86
2021/04/18 04:34:06;;;;;;;20.17;8.55;;;4.60;99.90;;;;;;4982856;28;20110;-87
2021/04/18 04:36:31;;;;;;;16.30;8.30;;;4.70;99.90;;;;;;4972284;28;20166;-87
2021/04/18 04:38:57;;;;;;;28.35;8.27;;;4.70;99.90;;;;;;4973718;28;20026;-87
2021/04/18 04:41:22;;;;;;;15.65;7.97;;;4.70;99.90;;;;;;4973613;28;20031;-87
2021/04/18 04:43:48;;;;;;;16.98;8.10;;;4.80;99.90;;;;;;4985095;28;20093;-86
2021/04/18 04:46:14;;;;;;;22.50;8.15;;;4.80;99.90;;;;;;4993035;28;20026;-86
2021/04/18 04:48:40;;;;;;;16.90;8.25;;;4.90;99.90;;;;;;4991846;28;20029;-86
2021/04/18 04:51:06;;;;;;;17.70;8.70;;;4.90;99.90;;;;;;4992798;28;20026;-86
2021/04/18 04:53:32;;;;;;;15.60;7.75;;;5.00;99.90;;;;;;4984638;28;20038;-86
2021/04/18 04:55:58;;;;;;;21.15;8.93;;;5.10;99.90;;;;;;4972869;28;20027;-86
2021/04/18 04:58:23;;;;;;;19.25;9.85;;;5.20;99.90;;;;;;4981657;28;20026;-86
2021/04/18 05:00:49;;;;;;;16.63;8.55;;;5.30;99.90;;;;;;4991442;28;20077;-86
2021/04/18 05:03:15;;;;;;;20.02;8.93;;;5.40;99.90;;;;;;4992294;28;20038;-87
2021/04/18 05:05:40;;;;;;;17.08;9.40;;;5.40;99.90;;;;;;4991977;28;20101;-87
2021/04/18 05:08:06;;;;;;;18.60;9.15;;;5.50;99.90;;;;;;4991483;28;20022;-86
2021/04/18 05:10:31;;;;;;;23.02;9.25;;;5.60;99.90;;;;;;4992642;28;20573;-87
2021/04/18 05:12:57;;;;;;;24.38;9.15;;;5.70;99.90;;;;;;4986668;28;20030;-87
2021/04/18 05:15:23;;;;;;;15.93;8.82;;;5.80;99.90;;;;;;4980461;28;20041;-86
2021/04/18 05:17:50;;;;;;;25.48;9.70;;;5.90;99.90;;;;;;4992669;28;20053;-87
2021/04/18 05:20:17;;;;;;;13.00;8.32;;;6.00;99.90;;;;;;4992437;28;20487;-87
2021/04/18 05:22:42;;;;;;;15.18;8.68;;;6.10;99.90;;;;;;4992012;28;20033;-87
2021/04/18 05:25:09;;;;;;;19.90;9.43;;;6.30;99.90;;;;;;4991868;28;20643;-86
2021/04/18 05:27:34;;;;;;;14.98;7.90;;;6.40;99.90;;;;;;4988353;28;20345;-86
2021/04/18 05:30:00;;;;;;;22.70;9.10;;;6.50;99.90;;;;;;4973067;28;20058;-86
2021/04/18 05:32:25;;;;;;;17.58;8.93;;;6.60;99.90;;;;;;4971687;28;20041;-86
2021/04/18 05:34:51;;;;;;;19.25;9.15;;;6.70;99.90;;;;;;4972198;28;20042;-86
2021/04/18 05:37:16;;;;;;;13.43;7.90;;;6.70;99.90;;;;;;4976660;28;20376;-87
2021/04/18 05:39:42;;;;;;;15.88;7.70;;;6.80;99.90;;;;;;4990908;28;20491;-87
2021/04/18 05:42:08;;;;;;;18.08;7.28;;;6.80;99.90;;;;;;4992320;28;20034;-87
2021/04/18 05:44:35;;;;;;;13.30;6.78;;;6.80;99.90;;;;;;5006562;28;20037;-86
2021/04/18 05:47:01;;;;;;;14.45;6.97;;;6.80;99.90;;;;;;4991260;28;20107;-87
2021/04/18 05:49:26;;;;;;;17.80;8.43;;;6.80;99.90;;;;;;4992263;28;20025;-87
2021/04/18 05:51:52;;;;;;;19.90;8.85;;;6.90;99.90;;;;;;4992130;28;20101;-86
2021/04/18 05:54:17;;;;;;;20.45;7.95;;;6.90;99.90;;;;;;4977511;28;20056;-86
2021/04/18 05:56:43;;;;;;;11.10;6.05;;;6.90;99.90;;;;;;4971649;28;20034;-87
2021/04/18 05:59:08;;;;;;;17.58;7.68;;;6.90;99.90;;;;;;4987605;28;20721;-86
2021/04/18 06:01:34;;;;;;;13.25;7.30;;;7.00;99.90;;;;;;4991978;28;20038;-87
2021/04/18 06:04:00;;;;;;;17.23;8.27;;;7.10;99.90;;;;;;4989794;28;20035;-87
2021/04/18 06:06:26;;;;;;;18.13;7.03;;;7.20;99.90;;;;;;4992777;28;20068;-86
2021/04/18 06:08:52;;;;;;;23.13;7.38;;;7.40;99.90;;;;;;4994492;28;20018;-86
2021/04/18 06:11:18;;;;;;;14.63;7.72;;;7.50;99.90;;;;;;5010924;28;20113;-87
2021/04/18 06:13:44;;;;;;;16.83;7.80;;;7.60;99.90;;;;;;4993606;28;20030;-86
2021/04/18 06:16:10;;;;;;;16.95;6.97;;;7.60;99.90;;;;;;5010050;28;20038;-87
2021/04/18 06:18:36;;;;;;;12.77;7.20;;;7.80;99.90;;;;;;4994438;28;20502;-87
2021/04/18 06:21:02;;;;;;;12.73;7.10;;;8.00;99.90;;;;;;4995413;28;20045;-86
2021/04/18 06:23:28;;;;;;;15.18;6.47;;;8.20;99.90;;;;;;4994706;28;20026;-87
2021/04/18 06:25:53;;;;;;;12.23;6.30;;;8.40;99.90;;;;;;4993876;28;20483;-86
2021/04/18 06:28:21;;;;;;;12.75;5.78;;;8.70;99.90;;;;;;4994726;28;20471;-87
2021/04/18 06:30:47;;;;;;;10.35;5.80;;;8.90;99.90;;;;;;4995403;28;20018;-87
2021/04/18 06:33:12;;;;;;;15.07;6.18;;;9.10;99.90;;;;;;4994609;28;20475;-87
2021/04/18 06:35:38;;;;;;;13.80;5.80;;;9.30;99.90;;;;;;4994585;28;20030;-86
2021/04/18 06:38:03;;;;;;;22.08;6.90;;;9.60;99.90;;;;;;4993996;28;20497;-87
2021/04/18 06:40:29;;;;;;;16.27;5.57;;;9.70;99.90;;;;;;4993932;28;20030;-86
2021/04/18 06:42:56;;;;;;;13.18;5.38;;;9.90;99.90;;;;;;4993344;28;20029;-86
2021/04/18 06:45:22;;;;;;;9.85;4.68;;;10.20;99.90;;;;;;5009471;28;20078;-86
2021/04/18 06:47:49;;;;;;;9.75;4.15;;;10.40;99.90;;;;;;4994224;28;20026;-86
2021/04/18 06:50:15;;;;;;;9.30;4.40;;;10.60;99.90;;;;;;4994902;28;20034;-86
2021/04/18 06:52:42;;;;;;;14.27;5.03;;;10.70;99.90;;;;;;4992886;28;20037;-86
2021/04/18 06:55:09;;;;;;;9.32;4.18;;;11.00;99.90;;;;;;5009249;28;20113;-86
2021/04/18 06:57:35;;;;;;;8.32;3.70;;;11.20;99.90;;;;;;4993979;28;20031;-86
2021/04/18 07:00:02;;;;;;;6.82;3.28;;;11.40;99.90;;;;;;4993599;28;20125;-86
2021/04/18 07:02:31;;;;;;;8.15;3.40;;;11.60;99.90;;;;;;4991280;28;20030;-87
2021/04/18 07:05:08;;;;;;;10.13;4.10;;;11.90;99.90;;;;;;5008441;28;20033;-86
2021/04/18 07:07:36;;;;;;;7.60;2.80;;;12.10;99.90;;;;;;4994522;28;20023;-87
2021/04/18 07:10:03;;;;;;;13.07;2.92;;;12.40;99.90;;;;;;4993074;28;20402;-86
2021/04/18 07:12:31;;;;;;;9.25;2.97;;;12.60;99.90;;;;;;4993939;28;20030;-87
2021/04/18 07:14:58;;;;;;;9.85;2.92;;;12.70;99.90;;;;;;4992458;28;20509;-86
2021/04/18 07:17:25;;;;;;;10.82;2.92;;;12.80;99.90;;;;;;4992965;28;20038;-86
2021/04/18 07:20:15;;;;;;;6.70;3.38;;;12.90;99.90;;;;;;4994213;28;20113;-86
2021/04/18 07:22:41;;;;;;;5.25;2.80;;;13.10;99.90;;;;;;4993786;28;20105;-86
2021/04/18 07:25:08;;;;;;;6.63;2.38;;;13.20;99.90;;;;;;4992214;28;20117;-86
2021/04/18 07:27:50;;;;;;;8.18;2.70;;;13.40;99.90;;;;;;4991513;28;20022;-86
2021/04/18 07:30:22;;;;;;;9.60;2.47;;;13.50;99.90;;;;;;4973374;28;20027;-86
2021/04/18 07:33:05;;;;;;;9.55;2.38;;;13.50;99.90;;;;;;4974449;28;20031;-86
2021/04/18 07:35:33;;;;;;;6.43;2.38;;;13.60;99.90;;;;;;4989042;28;20027;-86
2021/04/18 07:38:25;;;;;;;4.70;2.13;;;13.70;99.90;;;;;;4974584;28;20092;-87
2021/04/18 07:40:53;;;;;;;11.13;2.90;;;13.90;99.90;;;;;;4989891;28;20101;-85
2021/04/18 07:43:20;;;;;;;7.50;3.03;;;14.00;99.90;;;;;;5006644;28;20026;-86
2021/04/18 07:45:49;;;;;;;11.82;4.07;;;14.00;99.90;;;;;;4989500;28;20034;-87
2021/04/18 07:48:18;;;;;;;9.15;2.80;;;14.20;99.90;;;;;;4990062;28;20038;-88
2021/04/18 07:50:48;;;;;;;11.10;2.70;;;14.20;99.90;;;;;;4989397;28;20027;-86
2021/04/18 07:53:21;;;;;;;5.97;3.13;;;14.30;99.90;;;;;;4987946;28;20029;-86
2021/04/18 07:55:46;;;;;;;6.68;2.92;;;14.30;99.90;;;;;;4988973;28;20021;-86
2021/04/18 07:58:13;;;;;;;7.90;3.00;;;14.40;99.90;;;;;;4981086;28;20026;-85
2021/04/18 08:00:39;;;;;;;8.32;2.75;;;14.40;99.90;;;;;;4989228;28;20490;-85
2021/04/18 08:03:05;;;;;;;11.38;2.60;;;14.40;99.90;;;;;;4987688;28;20035;-85
2021/04/18 08:05:33;;;;;;;7.53;2.47;;;14.60;99.90;;;;;;4983906;28;20400;-85
2021/04/18 08:08:15;;;;;;;17.45;3.10;;;14.90;99.90;;;;;;4986667;28;20635;-86
2021/04/18 08:10:42;;;;;;;12.18;2.72;;;15.00;99.90;;;;;;4993186;28;20530;-85
2021/04/18 08:13:24;;;;;;;8.40;3.05;;;15.10;99.90;;;;;;4990374;28;20463;-84
2021/04/18 08:15:56;;;;;;;5.65;2.75;;;15.00;99.90;;;;;;4987138;28;20026;-85
2021/04/18 08:18:41;;;;;;;6.88;3.22;;;15.10;99.90;;;;;;4988274;28;20022;-84
2021/04/18 08:21:37;;;;;;;14.50;4.30;;;15.20;99.90;;;;;;4987246;28;20026;-84
2021/04/18 08:24:16;;;;;;;8.77;3.50;;;15.30;99.90;;;;;;4983676;28;20045;-86
2021/04/18 08:27:07;;;;;;;7.93;3.25;;;15.50;99.90;;;;;;4993301;28;20479;-85
2021/04/18 08:30:03;;;;;;;7.60;2.88;;;15.60;99.90;;;;;;4988866;28;20061;-86
2021/04/18 08:32:50;;;;;;;9.95;3.40;;;15.70;99.90;;;;;;4972146;28;20033;-86
2021/04/18 08:35:17;;;;;;;7.18;4.00;;;15.90;99.90;;;;;;4983494;28;20022;-85
2021/04/18 08:37:43;;;;;;;9.02;3.33;;;15.80;99.90;;;;;;4992263;28;20038;-86
2021/04/18 08:40:08;;;;;;;14.85;3.83;;;15.90;99.90;;;;;;4991789;28;20081;-86
2021/04/18 08:42:35;;;;;;;14.23;3.55;;;16.00;99.90;;;;;;4992257;28;20088;-85
2021/04/18 08:45:01;;;;;;;13.23;3.70;;;16.10;99.90;;;;;;4990863;28;20398;-86
2021/04/18 08:47:29;;;;;;;9.70;3.40;;;16.20;99.90;;;;;;4992908;28;20022;-86
2021/04/18 08:50:04;;;;;;;8.82;3.63;;;16.30;99.90;;;;;;4992734;28;20028;-86
2021/04/18 08:52:33;;;;;;;6.13;3.22;;;16.50;99.90;;;;;;4992540;28;20479;-84
2021/04/18 08:55:10;;;;;;;7.03;3.58;;;16.60;99.90;;;;;;4973387;28;20118;-86
2021/04/18 08:57:36;;;;;;;8.35;3.55;;;16.10;99.90;;;;;;4975124;28;20054;-86
2021/04/18 09:00:09;;;;;;;8.43;3.38;;;16.10;99.90;;;;;;4991461;28;20030;-86
2021/04/18 09:02:35;;;;;;;;;;;16.40;99.90;;;;;;5001989;28;20044;-85
2021/04/18 09:05:03;;;;;;;9.43;3.40;;;16.10;99.90;;;;;;4990529;28;20425;-85
2021/04/18 09:07:31;;;;;;;10.05;3.83;;;16.20;99.90;;;;;;4991080;28;20486;-85
2021/04/18 09:10:06;;;;;;;11.13;3.67;;;16.60;99.90;;;;;;4990037;28;20398;-85
2021/04/18 09:12:32;;;;;;;6.50;3.58;;;16.80;99.90;;;;;;5006963;28;20026;-86
2021/04/18 09:14:58;;;;;;;6.70;3.63;;;17.10;99.90;;;;;;4991510;28;20509;-86
2021/04/18 09:17:25;;;;;;;10.02;3.72;;;17.30;99.90;;;;;;4990516;28;20026;-84
2021/04/18 09:19:53;;;;;;;6.70;3.22;;;17.30;99.90;;;;;;4991490;28;20106;-86
2021/04/18 09:22:24;;;;;;;16.52;3.90;;;17.50;99.90;;;;;;4992021;28;20022;-84
2021/04/18 09:24:54;;;;;;;8.48;2.85;;;17.70;99.90;;;;;;4991208;28;20030;-83
2021/04/18 09:27:29;;;;;;;7.57;3.40;;;17.90;99.90;;;;;;4990853;28;20117;-84
2021/04/18 09:29:56;;;;;;;15.27;3.30;;;18.10;99.90;;;;;;4992123;28;20022;-84
2021/04/18 09:32:30;;;;;;;12.88;3.47;;;18.20;99.90;;;;;;4990834;28;20033;-84
2021/04/18 09:34:56;;;;;;;9.65;3.67;;;18.40;99.90;;;;;;4991398;28;20234;-83
2021/04/18 09:37:36;;;;;;;7.60;3.22;;;18.30;98.90;;;;;;4991792;28;20030;-85
2021/04/18 09:40:06;;;;;;;7.47;3.08;;;18.30;99.90;;;;;;4993407;28;20019;-85
2021/04/18 09:42:34;;;;;;;7.28;2.85;;;18.30;99.90;;;;;;4995997;28;20045;-85
2021/04/18 09:45:17;;;;;;;10.57;3.90;;;18.30;99.90;;;;;;4995454;28;20289;-84
2021/04/18 09:47:47;;;;;;;7.80;3.63;;;18.20;99.90;;;;;;4995881;28;20503;-85
2021/04/18 09:50:18;;;;;;;13.07;3.38;;;18.40;99.90;;;;;;4995860;28;20022;-84
2021/04/18 09:52:46;;;;;;;9.60;3.25;;;18.40;99.90;;;;;;4995764;28;20037;-84
2021/04/18 09:55:26;;;;;;;12.20;3.67;;;18.40;99.80;;;;;;4995164;28;20084;-84
2021/04/18 09:57:59;;;;;;;6.85;3.72;;;18.00;92.70;;;;;;4995719;28;20442;-84
2021/04/18 10:00:31;;;;;;;12.52;3.40;;;17.90;98.80;;;;;;4994496;28;20022;-85
2021/04/18 10:02:57;;;;;;;6.50;2.90;;;18.00;99.90;;;;;;4994295;28;20558;-84
2021/04/18 10:05:23;;;;;;;14.13;3.17;;;18.20;96.30;;;;;;4991175;28;20024;-84
2021/04/18 10:07:48;;;;;;;6.30;3.78;;;18.10;98.00;;;;;;4992723;28;20031;-85
2021/04/18 10:10:32;;;;;;;8.05;3.30;;;18.20;97.70;;;;;;4994098;28;20072;-85
2021/04/18 10:13:00;;;;;;;10.65;3.65;;;18.40;96.90;;;;;;4994236;28;20081;-84
2021/04/18 10:15:25;;;;;;;9.93;3.22;;;18.60;99.90;;;;;;4993634;28;20128;-84
2021/04/18 10:17:51;;;;;;;7.55;3.08;;;18.70;99.90;;;;;;4995356;28;20110;-85
2021/04/18 10:20:27;;;;;;;8.93;3.35;;;19.20;93.80;;;;;;4995490;28;20058;-83
2021/04/18 10:23:09;;;;;;;13.77;3.60;;;19.10;99.90;;;;;;4995098;28;20033;-83
2021/04/18 10:25:38;;;;;;;11.80;3.42;;;19.00;95.40;;;;;;4994794;28;20368;-83
2021/04/18 10:28:04;;;;;;;9.77;3.55;;;19.00;95.00;;;;;;4995144;28;20467;-84
2021/04/18 10:30:30;;;;;;;9.85;3.22;;;18.80;99.90;;;;;;4995238;28;20081;-83
2021/04/18 10:32:56;;;;;;;14.88;3.47;;;19.00;99.90;;;;;;4995838;28;20034;-85
2021/04/18 10:35:22;;;;;;;12.18;4.07;;;19.30;98.40;;;;;;4993228;28;20026;-83
2021/04/18 10:37:49;;;;;;;12.13;8.00;;;19.00;95.40;;;;;;4994033;28;20031;-84
2021/04/18 10:40:16;;;;;;;10.07;3.47;;;19.50;99.90;;;;;;5010368;28;20029;-83
2021/04/18 10:42:42;;;;;;;6.38;2.88;;;20.00;99.50;;;;;;4996765;28;20112;-84
2021/04/18 10:45:10;;;;;;;6.43;3.00;;;20.10;96.80;;;;;;4994468;28;20427;-84
2021/04/18 10:47:36;;;;;;;8.52;3.38;;;20.50;94.80;;;;;;4994977;28;20019;-83
2021/04/18 10:50:03;;;;;;;13.77;6.90;;;20.40;92.00;;;;;;4995036;28;20026;-84
2021/04/18 10:52:30;;;;;;;11.00;3.53;;;20.40;91.10;;;;;;4992858;28;20514;-85
2021/04/18 10:54:56;;;;;;;17.83;5.25;;;20.60;88.10;;;;;;4994269;28;20045;-87
2021/04/18 10:57:22;;;;;;;70.60;41.30;;;20.60;81.10;;;;;;5010084;28;20026;-86
2021/04/18 10:59:48;;;;;;;6.15;3.15;;;20.30;84.70;;;;;;4995009;28;20398;-86
2021/04/18 11:02:14;;;;;;;54.60;29.33;;;19.80;69.00;;;;;;4993556;28;20034;-86
2021/04/18 11:04:39;;;;;;;32.92;15.27;;;19.80;80.50;;;;;;4993740;28;20467;-86
2021/04/18 11:07:05;;;;;;;21.67;11.52;;;20.00;83.10;;;;;;5010101;28;20038;-86
2021/04/18 11:09:31;;;;;;;9.25;4.78;;;20.00;84.90;;;;;;4993588;28;20523;-86
2021/04/18 11:11:56;;;;;;;9.63;3.78;;;20.20;89.20;;;;;;5009680;28;20030;-87
2021/04/18 11:14:23;;;;;;;8.73;4.15;;;20.40;88.20;;;;;;4994051;28;20101;-86
2021/04/18 11:16:48;;;;;;;10.35;3.35;;;20.90;91.20;;;;;;4994664;28;20494;-86
2021/04/18 11:19:14;;;;;;;10.30;3.10;;;21.00;83.00;;;;;;4993865;28;20030;-86
2021/04/18 11:21:40;;;;;;;8.73;2.75;;;20.80;84.40;;;;;;4995820;28;20026;-86
2021/04/18 11:24:06;;;;;;;6.43;2.40;;;21.00;81.60;;;;;;4993850;28;20426;-87
2021/04/18 11:26:31;;;;;;;10.25;3.63;;;21.10;80.60;;;;;;4993272;28;20023;-88
2021/04/18 11:28:57;;;;;;;5.57;3.05;;;21.20;79.50;;;;;;5009883;28;20030;-86
2021/04/18 11:31:23;;;;;;;9.90;3.80;;;21.10;81.80;;;;;;5009957;28;20502;-87
2021/04/18 11:33:49;;;;;;;8.30;3.22;;;21.30;77.00;;;;;;4992349;28;20107;-86
2021/04/18 11:36:18;;;;;;;8.10;2.95;;;21.30;77.30;;;;;;4993115;28;20193;-87
2021/04/18 11:38:44;;;;;;;4.60;2.70;;;21.50;73.20;;;;;;5009246;28;20030;-86
2021/04/18 11:41:10;;;;;;;8.48;2.50;;;20.60;66.50;;;;;;4992902;28;20487;-86
2021/04/18 11:43:36;;;;;;;5.75;2.70;;;20.80;83.10;;;;;;4993765;28;20046;-87
2021/04/18 11:46:02;;;;;;;11.13;2.63;;;21.20;77.00;;;;;;4993733;28;20054;-86
2021/04/18 11:48:28;;;;;;;8.05;2.78;;;21.40;77.40;;;;;;4992676;28;20077;-87
2021/04/18 11:50:53;;;;;;;14.93;2.95;;;21.60;73.60;;;;;;4993871;28;20030;-86
2021/04/18 11:53:19;;;;;;;10.05;3.60;;;22.00;76.90;;;;;;4993848;28;20022;-87
2021/04/18 11:55:44;;;;;;;4.10;2.67;;;22.10;70.20;;;;;;4993210;28;20029;-87
2021/04/18 11:58:12;;;;;;;9.85;3.13;;;22.30;71.50;;;;;;4992391;28;20372;-87
2021/04/18 12:00:37;;;;;;;8.35;3.42;;;22.30;71.60;;;;;;4992593;28;20027;-87
2021/04/18 12:03:03;;;;;;;10.88;3.40;;;22.40;70.60;;;;;;4992159;28;20565;-87
2021/04/18 12:05:29;;;;;;;14.50;4.28;;;22.00;63.60;;;;;;4993004;28;20106;-86
2021/04/18 12:07:54;;;;;;;7.15;3.55;;;21.70;72.00;;;;;;4992377;28;20395;-85
2021/04/18 12:10:20;;;;;;;13.23;3.03;;;22.50;72.20;;;;;;4993477;28;20538;-87
2021/04/18 12:12:46;;;;;;;14.70;3.47;;;22.80;70.40;;;;;;4992283;28;20030;-86
2021/04/18 12:15:13;;;;;;;8.48;3.42;;;23.30;66.60;;;;;;4992789;28;20053;-86
2021/04/18 12:17:40;;;;;;;5.97;3.25;;;23.30;61.20;;;;;;4991902;28;20030;-82
2021/04/18 12:20:11;;;;;;;7.57;3.40;;;23.00;64.60;;;;;;4993299;28;20085;-83
2021/04/18 12:22:38;;;;;;;5.78;3.45;;;23.20;63.80;;;;;;4992758;28;20026;-83
2021/04/18 12:25:05;;;;;;;11.90;3.70;;;23.70;65.00;;;;;;4991304;28;20492;-82
2021/04/18 12:27:31;;;;;;;11.45;3.13;;;23.80;60.00;;;;;;4993116;28;20065;-84
2021/04/18 12:29:57;;;;;;;13.13;4.65;;;23.80;61.50;;;;;;4993102;28;20054;-85
2021/04/18 12:32:22;;;;;;;13.25;4.43;;;24.00;60.60;;;;;;4992981;28;20031;-83
2021/04/18 12:34:49;;;;;;;12.55;4.28;;;24.20;58.80;;;;;;4992182;28;20404;-83
2021/04/18 12:37:15;;;;;;;7.78;3.92;;;24.40;57.60;;;;;;4992898;28;20105;-81
2021/04/18 12:39:41;;;;;;;14.27;4.03;;;24.50;56.60;;;;;;4991503;28;20100;-83
2021/04/18 12:42:06;;;;;;;11.65;3.90;;;24.60;56.60;;;;;;4991382;28;20026;-84
2021/04/18 12:44:32;;;;;;;10.00;3.85;;;24.50;56.50;;;;;;4991982;28;20027;-84
2021/04/18 12:46:58;;;;;;;7.60;4.07;;;24.30;54.20;;;;;;4992898;28;20018;-85